M I D A S
Marine Information and Data Acquisition System
Tripno 307 of the Zeeleeuw from 2002-08-21 06:54:07 to 2002-08-21 15:43:45
Back to CruiseResearch ActivitiesStationsMapUnderway DataData graphs

EquipmentUnitsComment
TimeDGPSUTC
LatitudeDGPSDM.mWGS84
LongitudeDGPSDM.mWGS84
HeadingGyrodeg 
SOGDGPSknotsSpeed over ground
COGDGPSdegCourse over ground
DepthEcho soundermeters200 kHz
Missing or incorrect values are displayed as -999
Navigation data collected by the RV Zeeleeuw from 2002-08-21 06:54:07 to 2002-08-21 15:43:45
Time Latitude Longitude Heading SOG COG Depth
2002-08-21 06:55:12 51°13.67 2°55.925 104.2 2.4 286.9 -999
2002-08-21 06:56:12 51°13.681 2°55.841 93.3 3.6 277.8 -999
2002-08-21 06:57:11 51°13.68 2°55.744 77.8 3.2 260.1 12.8
2002-08-21 06:58:11 51°13.687 2°55.736 27.5 1.7 22.2 13.3
2002-08-21 06:59:11 51°13.74 2°55.706 339 4.7 332.4 9.7
2002-08-21 07:00:11 51°13.831 2°55.641 341 6.6 339.1 10.2
2002-08-21 07:01:11 51°13.938 2°55.572 340.2 7.1 338 10.5
2002-08-21 07:02:11 51°14.048 2°55.503 339.2 7.1 337.7 10.4
2002-08-21 07:03:11 51°14.151 2°55.412 327.8 7.2 326.4 10.6
2002-08-21 07:04:11 51°14.246 2°55.285 317.7 7.3 315.4 10.4
2002-08-21 07:05:12 51°14.322 2°55.138 311.3 7.1 308.1 10.2
2002-08-21 07:06:11 51°14.399 2°54.987 317.3 8.1 311.5 9.9
2002-08-21 07:07:12 51°14.51 2°54.862 339.7 8.2 331.3 9.6
2002-08-21 07:08:11 51°14.627 2°54.759 338.3 7.5 329.1 9.4
2002-08-21 07:09:11 51°14.728 2°54.666 341.2 6.5 330 9.4
2002-08-21 07:10:11 51°14.868 2°54.616 2.5 10.8 355.6 9.2
2002-08-21 07:11:11 51°15.057 2°54.586   11.4 354.4 8.2
2002-08-21 07:12:11 51°15.248 2°54.538 355.2 11.8 348.5 8.4
2002-08-21 07:13:11 51°15.443 2°54.474 355.2 12.3 349.3 9
2002-08-21 07:14:11 51°15.649 2°54.407 355 12.7 349.7 9.6
2002-08-21 07:15:12 51°15.861 2°54.334 355.7 12.7 348.4 10.4
2002-08-21 07:16:11 51°16.042 2°54.284   8.6 350.6 11.2
2002-08-21 07:17:11 51°16.124 2°54.297 22.8 3.2 15 11.5
2002-08-21 07:18:11 51°16.154 2°54.318 25.7 1.7 25.9 11.4
2002-08-21 07:19:11 51°16.192 2°54.335 16.8 2.7 10 11.4
2002-08-21 07:20:12 51°16.229 2°54.336 13.3 1.3 353.2 11.7
2002-08-21 07:21:12 51°16.235 2°54.334 22 0.2 223.3 11.6
2002-08-21 07:22:11 51°16.224 2°54.327 29.5 1 202 11.7
2002-08-21 07:23:11 51°16.208 2°54.321 38.3 1.1 187.8 11.4
2002-08-21 07:24:11 51°16.194 2°54.323 34.3 0.7 171.7 11.2
2002-08-21 07:25:11 51°16.185 2°54.32 24.8 0.7 192.1 11.7
2002-08-21 07:26:11 51°16.173 2°54.314 24.2 0.9 193 11.4
2002-08-21 07:27:11 51°16.162 2°54.306 16.2 0.8 199.5 11.3
2002-08-21 07:28:11 51°16.151 2°54.296 9.7 0.8 212.9 11.6
2002-08-21 07:29:11 51°16.146 2°54.284 356.3 0.7 232.7 11.4
2002-08-21 07:30:12 51°16.144 2°54.265 357.7 0.7 266.7 11.5
2002-08-21 07:31:11 51°16.147 2°54.253 6 0.4 304.1 11.8
2002-08-21 07:32:11 51°16.151 2°54.252 22.5 0.6 25.9 11.5
2002-08-21 07:33:12 51°16.165 2°54.259 19.3 0.9 11.2 11.8
2002-08-21 07:34:11 51°16.18 2°54.262 21.8 0.7 13.1 11.5
2002-08-21 07:35:12 51°16.182 2°54.269 28.3 0.4 129.4 11.5
2002-08-21 07:36:11 51°16.168 2°54.271 39.3 1 182.9 12.1
2002-08-21 07:37:12 51°16.156 2°54.272 29.7 0.5 174.3 11.6
2002-08-21 07:38:11 51°16.152 2°54.269 15.5 0.1 264 11.6
2002-08-21 07:39:12 51°16.154 2°54.269 21.7 0.1 48.6 11.6
2002-08-21 07:40:12 51°16.155 2°54.274 25.2 0.2 48.8 11.6
2002-08-21 07:41:12 51°16.162 2°54.285 26.2 1.1 36.5 11.6
2002-08-21 07:42:12 51°16.241 2°54.263 336.7 7.6 328.2 11.9
2002-08-21 07:43:12 51°16.358 2°54.042 318.8 12.1 310.6 11.9
2002-08-21 07:44:11 51°16.483 2°53.787 318.2 12.7 308.6 12.2
2002-08-21 07:45:12 51°16.623 2°53.514 318.2 13.1 310.1 11.9
2002-08-21 07:46:11 51°16.76 2°53.254 317.8 13 310.1 11.2
2002-08-21 07:47:11 51°16.899 2°53.004 319.8 12.4 311.8 8.5
2002-08-21 07:48:11 51°17.038 2°52.746 317.2 12.9 310.6 9.9
2002-08-21 07:49:11 51°17.175 2°52.49 318.2 12.6 310.5 9.7
2002-08-21 07:50:11 51°17.317 2°52.228 318.5 13.1 310.9 10.2
2002-08-21 07:51:11 51°17.466 2°51.967 321.5 13.3 313.2 10.6
2002-08-21 07:52:12 51°17.629 2°51.736 329 12.9 321.4 10.3
2002-08-21 07:53:12 51°17.795 2°51.52 328.2 12.3 320.2 10.4
2002-08-21 07:54:11 51°17.958 2°51.316 329.8 13.1 322.4 11
2002-08-21 07:55:12 51°18.142 2°51.125 342.8 12.9 335.2 12.5
2002-08-21 07:56:11 51°18.307 2°51.035 350.3 8.2 342 13.3
2002-08-21 07:57:11 51°18.362 2°51 350.3 2.9 332 14.2
2002-08-21 07:58:11 51°18.402 2°50.987 18.2 2.3 10.9 14
2002-08-21 07:59:11 51°18.434 2°51.009 22.5 1.5 26.4 13.9
2002-08-21 08:00:12 51°18.445 2°51.015 12.7 0.2 10.1 14.3
2002-08-21 08:01:11 51°18.444 2°51.014 11.5 0.1 191 14
2002-08-21 08:02:12 51°18.442 2°51.014 13   67.6 14.3
2002-08-21 08:03:12 51°18.439 2°51.014 12.2 0.2 182.1 14.2
2002-08-21 08:04:12 51°18.431 2°51.014 19.2 0.2 175.1 14.6
2002-08-21 08:05:11 51°18.433 2°51.014 11.7 0.2 339 13.8
2002-08-21 08:06:11 51°18.44 2°51.007 0.2 0.7 328.4 14.2
2002-08-21 08:07:11 51°18.445 2°50.99 350 0.6 271.1 13.9
2002-08-21 08:08:12 51°18.442 2°50.972 0.3 0.5 253.1 14.3
2002-08-21 08:09:12 51°18.438 2°50.968 22.2 0.2 175.6 14
2002-08-21 08:10:11 51°18.434 2°50.97 24.5 0.4 172.9 14.2
2002-08-21 08:11:12 51°18.431 2°50.973 22.7 0.3 153.7 13.7
2002-08-21 08:12:12 51°18.429 2°50.975 20.8 0.2 143.7 14.1
2002-08-21 08:13:12 51°18.425 2°50.976 22.3 0.3 166.4 13.9
2002-08-21 08:14:12 51°18.421 2°50.977 23.5 0.4 166 13.5
2002-08-21 08:15:12 51°18.416 2°50.981 25.7 0.3 149.3 14.4
2002-08-21 08:16:12 51°18.414 2°50.984 21.8 0.1 139 14.1
2002-08-21 08:17:12 51°18.41 2°50.988 25.3 0.5 153.3 13.7
2002-08-21 08:18:11 51°18.406 2°50.994 25.2 0.4 125.6 14.1
2002-08-21 08:19:12 51°18.401 2°51 27.5 0.4 145.9 14.3
2002-08-21 08:20:11 51°18.396 2°51.008 29.2 0.4 130.8 14.2
2002-08-21 08:21:11 51°18.443 2°51.029 13.2 6.3 8.4 14.2
2002-08-21 08:22:12 51°18.556 2°51.216 56.3 11.9 55.4 13.9
2002-08-21 08:23:12 51°18.674 2°51.487 56 12.6 55.8 14.1
2002-08-21 08:24:12 51°18.793 2°51.758 53 12.6 54.5 14.3
2002-08-21 08:25:12 51°18.905 2°52.035 66.3 12.5 65.6 14.1
2002-08-21 08:26:12 51°18.972 2°52.358 69.8 13 72.9 13.6
2002-08-21 08:27:11 51°19.027 2°52.682 72 12.9 73.1 13.1
2002-08-21 08:28:12 51°19.089 2°53.013 70.3 12.7 72 12.7
2002-08-21 08:29:12 51°19.145 2°53.341 72.2 12.9 71.9 12.7
2002-08-21 08:30:11 51°19.208 2°53.66 71.5 12.9 74.3 12.4
2002-08-21 08:31:11 51°19.266 2°53.987 73.2 12.8 75.1 12.5
2002-08-21 08:32:12 51°19.33 2°54.321 70 13 70.9 12.4
2002-08-21 08:33:11 51°19.388 2°54.643 70.7 13 72.8 12.7
2002-08-21 08:34:11 51°19.446 2°54.972 73.2 13 76 12.4
2002-08-21 08:35:12 51°19.508 2°55.304 72.3 12.7 75.1 12.6
2002-08-21 08:36:12 51°19.568 2°55.63 70.7 12.7 71.2 12.3
2002-08-21 08:37:12 51°19.625 2°55.955 73.5 12.8 75.3 12.3
2002-08-21 08:38:12 51°19.682 2°56.28 72.2 12.7 72.3 11.9
2002-08-21 08:39:12 51°19.741 2°56.601 73.5 12.7 75.4 12.1
2002-08-21 08:40:12 51°19.799 2°56.927 73.7 12.7 74.2 11.7
2002-08-21 08:41:12 51°19.857 2°57.252 73.2 12.6 73.5 11.8
2002-08-21 08:42:12 51°19.915 2°57.576 72.2 12.8 73.8 11.5
2002-08-21 08:43:12 51°19.971 2°57.904 75.8 12.8 74.2 11.4
2002-08-21 08:44:12 51°20.027 2°58.235 72 13 73.8 11.6
2002-08-21 08:45:11 51°20.094 2°58.553 72.3 12.8 72.9 11
2002-08-21 08:46:12 51°20.172 2°58.879 70.5 12.8 70.5 11.2
2002-08-21 08:47:12 51°20.253 2°59.193 65 12.8 66.9 11.2
2002-08-21 08:48:12 51°20.326 2°59.509 68.2 12.7 67.6 11
2002-08-21 08:49:12 51°20.399 2°59.826 68.8 12.7 69.9 11.2
2002-08-21 08:50:12 51°20.475 3°0.145 68.2 12.9 67.6 10.6
2002-08-21 08:51:12 51°20.554 3°0.463 70.8 12.9 70.9 11.1
2002-08-21 08:52:11 51°20.633 3°0.777 66.5 13.1 68.4 11
2002-08-21 08:53:11 51°20.713 3°1.098 69.3 12.9 68.4 11
2002-08-21 08:54:11 51°20.791 3°1.42 67.5 12.8 70.1 10.9
2002-08-21 08:55:12 51°20.874 3°1.745 67.8 13 66.8 11.2
2002-08-21 08:56:11 51°20.955 3°2.058 67.8 12.9 68.1 11.5
2002-08-21 08:57:12 51°21.038 3°2.379 66.8 12.7 68.5 11.1
2002-08-21 08:58:12 51°21.112 3°2.698 71.7 12.8 73.9 11.1
2002-08-21 08:59:12 51°21.18 3°3.026 70.2 13.1 71.2 11.6
2002-08-21 09:00:12 51°21.25 3°3.354 67.8 13.1 69.4 11.8
2002-08-21 09:01:12 51°21.315 3°3.684 74 12.9 74 11.5
2002-08-21 09:02:12 51°21.386 3°4.009 68.7 12.9 67.8 11.3
2002-08-21 09:03:12 51°21.458 3°4.337 70.8 13.1 70.9 11
2002-08-21 09:04:12 51°21.53 3°4.667 72.5 13.2 73.5 11.3
2002-08-21 09:05:12 51°21.6 3°5.002 70.8 13.3 70.7 11.5
2002-08-21 09:06:12 51°21.672 3°5.339 71 13.5 72.4 11.7
2002-08-21 09:07:12 51°21.731 3°5.676 71.3 13.2 72.4 11.5
2002-08-21 09:08:12 51°21.799 3°6.007 72.7 13 72.8 11.8
2002-08-21 09:09:11 51°21.855 3°6.342 76.2 13.2 78.7 12.5
2002-08-21 09:10:11 51°21.904 3°6.685 75.2 13.4 75.2 12.1
2002-08-21 09:11:12 51°21.957 3°7.039 76.3 13.6 78.8 12.3
2002-08-21 09:12:12 51°22.007 3°7.388 74.7 13.7 76.2 12.7
2002-08-21 09:13:12 51°22.063 3°7.731 75.7 13.4 76.8 12.3
2002-08-21 09:14:12 51°22.116 3°8.077 75 13.3 75.4 12.2
2002-08-21 09:15:12 51°22.167 3°8.422 77.8 13.4 77 12.5
2002-08-21 09:16:12 51°22.214 3°8.772 76 13.4 77.3 13.2
2002-08-21 09:17:12 51°22.253 3°9.123 81.7 13.5 79.7 13.4
2002-08-21 09:18:11 51°22.281 3°9.473 88.5 13.4 88 13.7
2002-08-21 09:19:12 51°22.282 3°9.842 82.2 13.9 85.9 13.9
2002-08-21 09:20:11 51°22.317 3°10.198 79.5 13.8 79.8 14.8
2002-08-21 09:21:12 51°22.365 3°10.561 80 13.8 78.5 18.4
2002-08-21 09:22:11 51°22.42 3°10.914 76.8 14 77.2 15.9
2002-08-21 09:23:12 51°22.471 3°11.284 73.7 14 77.1 16.4
2002-08-21 09:24:12 51°22.526 3°11.642 79.8 14.1 79 15.5
2002-08-21 09:25:11 51°22.572 3°11.993 87.5 13.6 86.2 15
2002-08-21 09:26:12 51°22.583 3°12.366 86.7 13.8 86.2 14.5
2002-08-21 09:27:12 51°22.596 3°12.731 82.2 13.9 84.4 15.5
2002-08-21 09:28:12 51°22.61 3°13.021 94.5 9.2 94 13.6
2002-08-21 09:29:12 51°22.606 3°13.187 80.5 4.6 87.2 13.3
2002-08-21 09:30:12 51°22.595 3°13.209 82 0.8 166.5 14
2002-08-21 09:31:12 51°22.583 3°13.238 71.7 1.2 127 12.9
2002-08-21 09:32:11 51°22.571 3°13.262 69.7 1.2 133 12.8
2002-08-21 09:33:12 51°22.56 3°13.285 63.5 1.1 123.2 13.3
2002-08-21 09:34:12 51°22.549 3°13.309 59.7 1.2 125.9 12.6
2002-08-21 09:35:12 51°22.538 3°13.334 56.5 1.1 124 12.9
2002-08-21 09:36:12 51°22.528 3°13.359 56.3 1.2 119.6 13.2
2002-08-21 09:37:12 51°22.522 3°13.394 46.7 1.4 92.4 13.4
2002-08-21 09:38:12 51°22.526 3°13.432 29.5 1.5 73.7 13.2
2002-08-21 09:39:12 51°22.533 3°13.466 22.2 1.2 76.3 13.2
2002-08-21 09:40:12 51°22.533 3°13.497 20 1.2 100.5 12.9
2002-08-21 09:41:12 51°22.528 3°13.529 27.7 1.2 105.4 13.2
2002-08-21 09:42:12 51°22.523 3°13.564 28.2 1.5 90.9 12.6
2002-08-21 09:43:12 51°22.524 3°13.6 22.5 1.3 91.3 12.5
2002-08-21 09:44:12 51°22.522 3°13.634 21 1.3 95 12.5
2002-08-21 09:45:12 51°22.521 3°13.668 17.7 1.3 89.2 12.2
2002-08-21 09:46:12 51°22.534 3°13.694 350 1.6 19.7 12.2
2002-08-21 09:47:12 51°22.544 3°13.684 285.2 0.7 207.1 12.7
2002-08-21 09:48:12 51°22.528 3°13.684 262.7 1 177.1 12.7
2002-08-21 09:49:12 51°22.512 3°13.675 276.8 1 221.9 12.5
2002-08-21 09:50:11 51°22.504 3°13.653 297.5 0.9 242.9 12.3
2002-08-21 09:51:12 51°22.504 3°13.633 308.3 0.8 283.7 13.2
2002-08-21 09:52:12 51°22.514 3°13.612 314.2 1 309.6 12.6
2002-08-21 09:53:12 51°22.525 3°13.59 312.7 1.2 304.6 13.1
2002-08-21 09:54:12 51°22.539 3°13.568 316 1 315.2 12.6
2002-08-21 09:55:12 51°22.55 3°13.549 315 1 313.5 13.1
2002-08-21 09:56:12 51°22.563 3°13.53 315.5 1.2 316.1 13.2
2002-08-21 09:57:12 51°22.576 3°13.505 309.3 1.3 304.9 13
2002-08-21 09:58:12 51°22.59 3°13.47 310.3 1.6 305.5 13.4
2002-08-21 09:59:12 51°22.611 3°13.445 331.8 1.6 344.4 13.2
2002-08-21 10:00:12 51°22.643 3°13.468 21.2 2.7 42.6 13.2
2002-08-21 10:01:12 51°22.676 3°13.549 38.2 3.9 55.6 12.8
2002-08-21 10:02:12 51°22.717 3°13.636 33 4.1 50.7 12.4
2002-08-21 10:03:12 51°22.76 3°13.717 29.8 3.9 49.9 12.4
2002-08-21 10:04:12 51°22.803 3°13.794 27 3.9 48.4 12.5
2002-08-21 10:05:12 51°22.847 3°13.868 20.7 3.8 47.5 11.6
2002-08-21 10:06:12 51°22.888 3°13.941 23.5 3.7 48.9 12.5
2002-08-21 10:07:12 51°22.927 3°14.016 26.8 3.8 51.8 13.1
2002-08-21 10:08:12 51°22.966 3°14.096 24.3 3.9 48.5 12.3
2002-08-21 10:09:12 51°23.011 3°14.172 20.8 3.8 46.9 11.8
2002-08-21 10:10:12 51°23.051 3°14.252 28 3.9 58.5 11.2
2002-08-21 10:11:12 51°23.093 3°14.335 24.8 4.1 48.3 11.8
2002-08-21 10:12:12 51°23.139 3°14.414 21.7 4 47.4 11.6
2002-08-21 10:13:12 51°23.187 3°14.49 17 3.9 43.2 11.4
2002-08-21 10:14:12 51°23.235 3°14.562 14.5 3.8 43.8 11.6
2002-08-21 10:15:11 51°23.281 3°14.637 17.8 4.2 45.5 12.3
2002-08-21 10:16:12 51°23.331 3°14.719 23 4.4 47.4 11.6
2002-08-21 10:17:12 51°23.388 3°14.804 18.8 4.6 41.6 12.6
2002-08-21 10:18:12 51°23.447 3°14.883 22 4.8 41.2 11.9
2002-08-21 10:19:12 51°23.503 3°14.974 19 4.8 41 13.7
2002-08-21 10:20:12 51°23.561 3°15.057 17.7 4.9 39.6 12.1
2002-08-21 10:21:12 51°23.634 3°15.145 18.8 5.6 39 13.5
2002-08-21 10:22:12 51°23.713 3°15.235 17.3 6.1 33.9 13.9
2002-08-21 10:23:12 51°23.805 3°15.327 17.7 6.7 32.3 13.5
2002-08-21 10:24:12 51°23.896 3°15.423 15.7 6.6 31.4 14.3
2002-08-21 10:25:12 51°23.993 3°15.518 18.7 7.1 32.6 13.3
2002-08-21 10:26:12 51°24.091 3°15.618 15.2 6.7 31.3 14.3
2002-08-21 10:27:12 51°24.189 3°15.72 18.5 7.1 33.8 13.7
2002-08-21 10:28:12 51°24.285 3°15.827 19.5 7.1 37.3 14.7
2002-08-21 10:29:12 51°24.383 3°15.941 16.3 7.4 34.1 18.4
2002-08-21 10:30:12 51°24.488 3°16.048 17.2 7.5 33.6 19.2
2002-08-21 10:31:12 51°24.591 3°16.155 17.2 7.3 34 19.3
2002-08-21 10:32:12 51°24.691 3°16.26 12.8 7.2 31 19.1
2002-08-21 10:33:11 51°24.787 3°16.369 24 7.1 41.9 15.9
2002-08-21 10:34:12 51°24.881 3°16.482 14 6.9 32 17.6
2002-08-21 10:35:11 51°24.978 3°16.583 18.2 7.4 34.6 15.9
2002-08-21 10:36:12 51°25.079 3°16.685 12 7.2 28.1 15.2
2002-08-21 10:37:11 51°25.199 3°16.789 22 8.7 33.9 13.4
2002-08-21 10:38:12 51°25.323 3°16.915 19.5 8.2 30.6 12.5
2002-08-21 10:39:12 51°25.422 3°17.035 23.2 7 38.9 11.1
2002-08-21 10:40:12 51°25.496 3°17.136 17.5 5.4 39.3 11.2
2002-08-21 10:41:11 51°25.555 3°17.224 16.7 4.7 41.2 12.6
2002-08-21 10:42:12 51°25.607 3°17.315 21 4.6 47.3 11.2
2002-08-21 10:43:12 51°25.664 3°17.401 19 4.8 40.9 11.8
2002-08-21 10:44:12 51°25.722 3°17.488 19.5 4.6 43.4 11.1
2002-08-21 10:45:12 51°25.779 3°17.569 16.8 4.4 41.1 11
2002-08-21 10:46:12 51°25.817 3°17.647 30.2 3.4 60 11.3
2002-08-21 10:47:12 51°25.836 3°17.73 43.5 3.3 72.6 11
2002-08-21 10:48:12 51°25.846 3°17.809 42.2 2.9 81 11.1
2002-08-21 10:49:12 51°25.854 3°17.882 33.2 2.6 80.2 11
2002-08-21 10:50:12 51°25.864 3°17.949 18.7 2.7 71.5 10.8
2002-08-21 10:51:12 51°25.885 3°17.998 348 1.9 57.1 11.8
2002-08-21 10:52:11 51°25.89 3°18.046 342 1.8 88.2 11
2002-08-21 10:53:12 51°25.896 3°18.075 295.8 0.4 54.8 11.1
2002-08-21 10:54:12 51°25.885 3°18.059 264.7 1.5 222.8 10.8
2002-08-21 10:55:12 51°25.872 3°18.021 271 1.9 249.8 11.5
2002-08-21 10:56:12 51°25.876 3°17.978 304.5 1.5 307.6 11.3
2002-08-21 10:57:12 51°25.893 3°17.98 321.2 1 52.5 10.8
2002-08-21 10:58:11 51°25.909 3°17.991 316 1.4 0.5 11.7
2002-08-21 10:59:11 51°25.926 3°17.984 304.7 0.5 350.3 11.4
2002-08-21 11:00:12 51°25.933 3°17.992 309.5 0.5 62.1 11.3
2002-08-21 11:01:12 51°25.937 3°18.01 315.7 0.8 65.3 10.9
2002-08-21 11:02:12 51°25.944 3°18.023 308 0.6 44.9 11.1
2002-08-21 11:03:12 51°25.949 3°18.022 295 0.5 301.5 11.5
2002-08-21 11:04:12 51°25.953 3°17.996 291.2 1.2 284.9 11.2
2002-08-21 11:05:12 51°25.963 3°17.967 296.5 1.3 297.9 11
2002-08-21 11:06:12 51°25.971 3°17.942 295.2 1 297.5 10.9
2002-08-21 11:07:12 51°25.977 3°17.916 289.3 1 277.6 11.1
2002-08-21 11:08:12 51°25.976 3°17.88 282.5 1.3 262 11.8
2002-08-21 11:09:12 51°25.975 3°17.85 285 1.1 268.5 11.1
2002-08-21 11:10:11 51°25.974 3°17.817 282.5 1.4 264.2 11.3
2002-08-21 11:11:12 51°25.971 3°17.763 273.3 3.1 262.3 11.3
2002-08-21 11:12:12 51°25.926 3°17.652 235.8 6.1 223.3 11.2
2002-08-21 11:13:12 51°25.848 3°17.528 239.7 6.7 226.7 11
2002-08-21 11:14:12 51°25.772 3°17.396 238.7 6.7 226.8 11.6
2002-08-21 11:15:12 51°25.697 3°17.265 242 6.6 229.4 11.6
2002-08-21 11:16:12 51°25.628 3°17.136 243.7 6.4 230.7 11.8
2002-08-21 11:17:12 51°25.563 3°17.004 245 6.3 233.3 12
2002-08-21 11:18:12 51°25.505 3°16.863 248.2 6.2 239.3 12.2
2002-08-21 11:19:12 51°25.448 3°16.72 244.8 6.3 233.6 11.1
2002-08-21 11:20:12 51°25.386 3°16.581 244.3 6.5 234.7 12.6
2002-08-21 11:21:12 51°25.322 3°16.441 244.7 6.4 231.7 13.1
2002-08-21 11:22:12 51°25.257 3°16.311 245.2 6.2 230.4 13.9
2002-08-21 11:23:12 51°25.192 3°16.182 244.3 6.3 230.8 14.7
2002-08-21 11:24:12 51°25.15 3°16.036 260.7 5.9 252.3 15.3
2002-08-21 11:25:12 51°25.125 3°15.889 263.7 5.8 255.4 16.1
2002-08-21 11:26:12 51°25.098 3°15.708 262.8 8 257.5 16.4
2002-08-21 11:27:12 51°25.069 3°15.51 261.8 6.6 255.2 17.1
2002-08-21 11:28:12 51°25.041 3°15.357 261.3 6.7 254.1 17.4
2002-08-21 11:29:12 51°25.003 3°15.103 258.8 11.1 255.7 17
2002-08-21 11:30:12 51°24.962 3°14.805 261.7 11.6 257.8 17.6
2002-08-21 11:31:12 51°24.92 3°14.503 261.5 11.6 257.1 17.7
2002-08-21 11:32:11 51°24.881 3°14.202 262.3 11.7 259.8 18.5
2002-08-21 11:33:12 51°24.84 3°13.896 260.8 11.6 258.3 18.2
2002-08-21 11:34:12 51°24.803 3°13.593 261.7 11.6 259.8 18.9
2002-08-21 11:35:12 51°24.767 3°13.281 261.2 12.1 259.1 18.1
2002-08-21 11:36:12 51°24.725 3°12.966 260.8 11.9 256.8 17.7
2002-08-21 11:37:12 51°24.683 3°12.656 260.8 11.9 258.2 17.7
2002-08-21 11:38:12 51°24.641 3°12.345 260.8 12.1 259.2 17
2002-08-21 11:39:12 51°24.595 3°12.034 259 12.1 257.9 17.3
2002-08-21 11:40:12 51°24.546 3°11.721 259.3 12.1 256.2 18.7
2002-08-21 11:41:12 51°24.499 3°11.411 259.7 12.1 256.6 18.2
2002-08-21 11:42:11 51°24.452 3°11.105 260.3 12 256.4 18.2
2002-08-21 11:43:12 51°24.404 3°10.797 259.5 11.4 255.9 18.7
2002-08-21 11:44:12 51°24.37 3°10.496 267.5 11.3 263.9 19.5
2002-08-21 11:45:12 51°24.361 3°10.197 270.5 11.2 266.7 18.7
2002-08-21 11:46:12 51°24.353 3°9.904 269.5 11 268.7 17
2002-08-21 11:47:12 51°24.352 3°9.606 271.2 11.2 270.4 17.3
2002-08-21 11:48:12 51°24.351 3°9.306 270 11.4 269 16.9
2002-08-21 11:49:12 51°24.349 3°9.006 271 11.4 269.2 15.8
2002-08-21 11:50:12 51°24.344 3°8.702 268.8 11.7 266.2 15.9
2002-08-21 11:51:11 51°24.325 3°8.396 265.7 11.8 263.7 16.2
2002-08-21 11:52:12 51°24.302 3°8.08 266.2 11.8 263.8 16.3
2002-08-21 11:53:12 51°24.278 3°7.765 266 11.9 263.2 16.2
2002-08-21 11:54:12 51°24.256 3°7.451 264.2 11.8 264 17.2
2002-08-21 11:55:12 51°24.242 3°7.134 271 12 271.2 17
2002-08-21 11:56:12 51°24.252 3°6.815 273.8 12.1 272.5 17.2
2002-08-21 11:57:12 51°24.258 3°6.495 272.7 12 272.2 17.7
2002-08-21 11:58:12 51°24.275 3°6.172 275 12.3 275 18.9
2002-08-21 11:59:12 51°24.291 3°5.848 276.3 12.1 275.5 18.6
2002-08-21 12:00:12 51°24.341 3°5.537 299.2 12 299.5 17.7
2002-08-21 12:01:12 51°24.51 3°5.353 342 13 343.9 15.6
2002-08-21 12:02:12 51°24.704 3°5.225 321.8 12.3 325.1 15.4
2002-08-21 12:03:12 51°24.883 3°5.048 331.3 12.7 334.3 15.5
2002-08-21 12:04:12 51°25.087 3°4.914 335.2 13.3 339.3 14.7
2002-08-21 12:05:13 51°25.296 3°4.789 336.3 13.2 339.6 14.2
2002-08-21 12:06:12 51°25.495 3°4.67 335.3 13.2 338.9 14.2
2002-08-21 12:07:12 51°25.699 3°4.545 335.3 12.5 338.6 29.6
2002-08-21 12:08:12 51°25.899 3°4.427 336.3 13.1 339.7 13.5
2002-08-21 12:09:13 51°26.106 3°4.301 335.5 13 338 13.4
2002-08-21 12:10:12 51°26.309 3°4.175 335.8 13.1 339 14
2002-08-21 12:11:12 51°26.511 3°4.048 334.8 13.3 338.5 14
2002-08-21 12:12:17 51°26.734 3°3.925 340 13.4 343 12.3
2002-08-21 12:13:17 51°26.951 3°3.837 345.2 12.7 347 13.6
2002-08-21 12:14:17 51°27.166 3°3.766 345 13.7 348.3 15.7
2002-08-21 12:15:17 51°27.384 3°3.687 345.7 13.6 347.4 17.8
2002-08-21 12:16:17 51°27.606 3°3.618 347.2 13.6 348.7 20
2002-08-21 12:17:17 51°27.825 3°3.566 350.2 13.5 353.9 21.4
2002-08-21 12:18:17 51°28.053 3°3.576 2 13.1 5.8 23
2002-08-21 12:19:17 51°28.215 3°3.609 353 7.6 3.4 24.8
2002-08-21 12:20:17 51°28.291 3°3.59 324.8 2.9 351.8 24.8
2002-08-21 12:21:17 51°28.321 3°3.595 309.5 1.3 18.9 25.7
2002-08-21 12:22:17 51°28.331 3°3.61 277.5 0.7 86.1 24.8
2002-08-21 12:23:17 51°28.329 3°3.62 254 0.3 159.5 24.7
2002-08-21 12:24:17 51°28.322 3°3.608 252.2 1 239.3 24.2
2002-08-21 12:25:17 51°28.317 3°3.593 252.5 0.5 219.2 25.1
2002-08-21 12:26:17 51°28.312 3°3.586 254.8 0.3 197.9 24.3
2002-08-21 12:27:17 51°28.308 3°3.59 242 0.4 144.2 24.3
2002-08-21 12:28:17 51°28.303 3°3.603 242.8 0.5 104.7 25.5
2002-08-21 12:29:17 51°28.299 3°3.624 242.7 0.8 97.4 24.9
2002-08-21 12:30:17 51°28.298 3°3.647 246 0.9 88.6 24.6
2002-08-21 12:31:17 51°28.298 3°3.676 242.2 1.2 90.1 23.9
2002-08-21 12:32:17 51°28.299 3°3.708 242 1.2 91.3 23.7
2002-08-21 12:33:17 51°28.3 3°3.741 239.7 1.3 86.1 24.9
2002-08-21 12:34:17 51°28.3 3°3.773 243.8 1.1 84.8 24
2002-08-21 12:35:17 51°28.302 3°3.806 240.5 1.3 89.3 24.5
2002-08-21 12:36:17 51°28.301 3°3.842 235.7 1.3 92 23.9
2002-08-21 12:37:17 51°28.302 3°3.876 238 1.3 87.3 23.4
2002-08-21 12:38:17 51°28.3 3°3.901 238.7 0.5 132.4 23
2002-08-21 12:39:17 51°28.288 3°3.897 245.5 1.1 208.9 23
2002-08-21 12:40:17 51°28.277 3°3.867 253.2 1.7 245.6 23.9
2002-08-21 12:41:17 51°28.263 3°3.813 252.8 2.5 248.2 23.7
2002-08-21 12:42:17 51°28.247 3°3.742 252.8 3.1 252.4 24.4
2002-08-21 12:43:17 51°28.228 3°3.662 253.5 3.3 247.6 23.1
2002-08-21 12:44:17 51°28.211 3°3.574 253.8 4 251.6 24.4
2002-08-21 12:45:17 51°28.185 3°3.461 252.3 4.8 250.2 24.3
2002-08-21 12:46:17 51°28.158 3°3.337 254.2 4.9 251.7 24.3
2002-08-21 12:47:17 51°28.131 3°3.213 253 5 252.5 24.7
2002-08-21 12:48:17 51°28.105 3°3.078 253 5.8 251.7 25.2
2002-08-21 12:49:17 51°28.073 3°2.919 253.7 6.4 253.1 25.1
2002-08-21 12:50:17 51°28.04 3°2.753 253.3 6.7 252 25.5
2002-08-21 12:51:17 51°28.01 3°2.584 253 6.6 253.7 26.1
2002-08-21 12:52:17 51°27.979 3°2.413 254.3 6.7 254.5 26.4
2002-08-21 12:53:17 51°27.948 3°2.24 253.3 6.7 254.4 26.1
2002-08-21 12:54:17 51°27.918 3°2.063 254 7.2 255.1 26.3
2002-08-21 12:55:17 51°27.885 3°1.871 252.7 7.6 255.2 26.3
2002-08-21 12:56:17 51°27.852 3°1.677 254 7.5 254.9 26.2
2002-08-21 12:57:17 51°27.82 3°1.479 254 7.7 255 26.1
2002-08-21 12:58:17 51°27.787 3°1.279 253 7.9 254 25.7
2002-08-21 12:59:17 51°27.753 3°1.077 251.5 7.8 254.1 26.1
2002-08-21 13:00:17 51°27.713 3°0.842 254.7 11 255 25.9
2002-08-21 13:01:17 51°27.657 3°0.534 252 12.3 253.1 24.2
2002-08-21 13:02:17 51°27.597 3°0.213 251.5 12.5 251.7 22.8
2002-08-21 13:03:17 51°27.539 2°59.887 254.2 12.8 254.7 22
2002-08-21 13:04:17 51°27.481 2°59.56 252.5 12.9 254.7 22.2
2002-08-21 13:05:17 51°27.429 2°59.227 258 12.9 258.5 22.6
2002-08-21 13:06:17 51°27.38 2°58.893 256 12.8 256.2 19.1
2002-08-21 13:07:17 51°27.331 2°58.564 253.5 12.6 253.6 18.9
2002-08-21 13:08:17 51°27.281 2°58.237 257.5 12.6 256.9 18.7
2002-08-21 13:09:17 51°27.235 2°57.908 257 12.5 258.5 22.2
2002-08-21 13:10:17 51°27.186 2°57.579 253.8 12.6 254.1 23
2002-08-21 13:11:17 51°27.142 2°57.253 257.5 12.5 257.4 25.1
2002-08-21 13:12:17 51°27.094 2°56.924 256.3 12.8 255.8 23.8
2002-08-21 13:13:17 51°27.046 2°56.6 257 12.5 257.7 21.1
2002-08-21 13:14:17 51°27 2°56.273 257.2 12.7 257.4 29.4
2002-08-21 13:15:17 51°26.955 2°55.943 255.8 12.6 255.6 30.7
2002-08-21 13:16:17 51°26.907 2°55.616 257 12.6 258.4 30.8
2002-08-21 13:17:17 51°26.86 2°55.288 257 12.4 258.2 29.1
2002-08-21 13:18:17 51°26.812 2°54.964 255.5 12.6 255.1 27.8
2002-08-21 13:19:17 51°26.766 2°54.638 257 12.6 258.6 26.6
2002-08-21 13:20:17 51°26.723 2°54.312 257.7 12.5 257.2 28.7
2002-08-21 13:21:17 51°26.68 2°53.984 256.8 12.7 258.5 33.2
2002-08-21 13:22:17 51°26.634 2°53.652 255 12.9 257.7 33.8
2002-08-21 13:23:17 51°26.585 2°53.324 255.8 12.6 256 33
2002-08-21 13:24:17 51°26.538 2°52.996 255.2 12.5 255.2 30.9
2002-08-21 13:25:17 51°26.492 2°52.674 256.2 12.4 257.3 30.1
2002-08-21 13:26:17 51°26.448 2°52.344 257.5 12.8 257.7 29.3
2002-08-21 13:27:17 51°26.401 2°52.016 255 12.7 256.8 26.9
2002-08-21 13:28:17 51°26.35 2°51.69 254.7 12.6 255.7 28.6
2002-08-21 13:29:17 51°26.306 2°51.364 256.7 12.6 258 28.1
2002-08-21 13:30:17 51°26.259 2°51.047 258.5 12.1 258.2 25.9
2002-08-21 13:31:17 51°26.215 2°50.727 257 12.5 258.1 25.4
2002-08-21 13:32:17 51°26.169 2°50.408 256.2 12.3 257.1 25
2002-08-21 13:33:17 51°26.124 2°50.089 257.8 12.2 259.7 25.5
2002-08-21 13:34:17 51°26.08 2°49.769 256.5 12.3 259.1 25.4
2002-08-21 13:35:17 51°26.041 2°49.454 258.5 11.2 260.5 25
2002-08-21 13:36:17 51°26.025 2°49.159 266 11.2 268.7 25.6
2002-08-21 13:37:17 51°26.013 2°48.872 259 9.7 261.6 25.2
2002-08-21 13:38:17 51°25.994 2°48.683 259.7 5.4 262.4 25.9
2002-08-21 13:39:17 51°25.99 2°48.582 263.8 2.9 270.7 25.9
2002-08-21 13:40:17 51°25.993 2°48.53 258 1.3 270.8 25
2002-08-21 13:41:17 51°25.989 2°48.511 244.7 0.5 235.9 26.1
2002-08-21 13:42:17 51°25.984 2°48.507 246.5 0.2 200.8 25.6
2002-08-21 13:43:17 51°25.982 2°48.508 245.7 0.2 101.2 25.4
2002-08-21 13:44:17 51°25.983 2°48.513 250.7 0.2 82.4 24.8
2002-08-21 13:45:17 51°25.986 2°48.519 251.5 0.3 65.4 25.2
2002-08-21 13:46:16 51°25.988 2°48.529 253 0.3 55.1 25.4
2002-08-21 13:47:17 51°25.991 2°48.537 254.8 0.4 57 25.5
2002-08-21 13:48:17 51°25.994 2°48.547 253.8 0.4 68.4 25.4
2002-08-21 13:49:17 51°25.996 2°48.559 250.7 0.5 59.4 25.4
2002-08-21 13:50:17 51°25.997 2°48.569 246.5 0.3 73.1 25.5
2002-08-21 13:51:17 51°25.997 2°48.575 246.7 0.2 77.5 25.8
2002-08-21 13:52:17 51°25.997 2°48.582 243 0.4 89.7 25.3
2002-08-21 13:53:17 51°25.996 2°48.591 240.7 0.1 99.9 25.8
2002-08-21 13:54:17 51°25.995 2°48.595 244.5 0.2 124.1 25.7
2002-08-21 13:55:17 51°25.994 2°48.599 244.7 0.2 105.2 26
2002-08-21 13:56:17 51°25.992 2°48.605 244.5 0.3 109.1 25.1
2002-08-21 13:57:17 51°25.991 2°48.612 244.5 0.2 105.1 25.6
2002-08-21 13:58:17 51°25.99 2°48.619 244.5 0.4 96.3 26.1
2002-08-21 13:59:17 51°25.989 2°48.627 244.7 0.2 93.8 25.5
2002-08-21 14:00:17 51°25.988 2°48.634 244.7 0.3 105.7 25.5
2002-08-21 14:01:17 51°25.987 2°48.642 241.2 0.4 113 25.4
2002-08-21 14:02:17 51°25.985 2°48.653 238.5 0.4 110.6 25.4
2002-08-21 14:03:17 51°25.983 2°48.662 238.8 0.3 113 25.9
2002-08-21 14:04:17 51°25.977 2°48.665 229.7 0.7 195.6 25.2
2002-08-21 14:05:17 51°25.954 2°48.66 194.2 2.4 175.8 25.3
2002-08-21 14:06:17 51°25.894 2°48.684 178.5 4.3 165.2 25.3
2002-08-21 14:07:17 51°25.819 2°48.731 167.7 5.1 154.6 25.4
2002-08-21 14:08:17 51°25.741 2°48.795 165 5.4 151.7 25.6
2002-08-21 14:09:17 51°25.659 2°48.858 168.2 5.5 155.4 26.1
2002-08-21 14:10:17 51°25.575 2°48.907 174.5 5.4 162.1 26
2002-08-21 14:11:17 51°25.491 2°48.943 180.2 5.1 168.7 25.1
2002-08-21 14:12:17 51°25.406 2°48.974 179.3 5.2 166.1 25.5
2002-08-21 14:13:17 51°25.322 2°49.004 179.2 5.1 167.6 25.1
2002-08-21 14:14:17 51°25.238 2°49.033 179.3 5.2 169.3 24.3
2002-08-21 14:15:17 51°25.149 2°49.059 180.2 5.6 171.4 25.1
2002-08-21 14:16:17 51°25.048 2°49.082 177.8 6.3 169.6 23
2002-08-21 14:17:17 51°24.944 2°49.102 180.3 6.3 173.9 23.9
2002-08-21 14:18:18 51°24.837 2°49.12 179.5 6.4 173.7 24
2002-08-21 14:19:18 51°24.73 2°49.138 180.7 6.5 174.6 24
2002-08-21 14:20:18 51°24.624 2°49.154 179.8 6.4 174 23.6
2002-08-21 14:21:18 51°24.518 2°49.175 180 6.4 173.6 23.3
2002-08-21 14:22:18 51°24.415 2°49.192 180 6.3 174.6 23.6
2002-08-21 14:23:18 51°24.312 2°49.211 179 6.2 172.4 24.1
2002-08-21 14:24:18 51°24.209 2°49.225 180.7 6.3 176.5 23.4
2002-08-21 14:25:18 51°24.104 2°49.241 179.7 6.4 174 24.3
2002-08-21 14:26:18 51°23.996 2°49.257 180.2 6.5 174.5 23.7
2002-08-21 14:27:18 51°23.889 2°49.281 175 6.5 169.5 23.2
2002-08-21 14:28:18 51°23.783 2°49.312 175.7 6.5 170.4 23.8
2002-08-21 14:29:18 51°23.691 2°49.338 176.5 5 171.5 23
2002-08-21 14:30:18 51°23.615 2°49.363 174.8 4.6 169.6 23.6
2002-08-21 14:31:18 51°23.535 2°49.39 175.5 5.2 169.3 22.7
2002-08-21 14:32:18 51°23.442 2°49.419 175.8 6.1 170.5 21.9
2002-08-21 14:33:18 51°23.336 2°49.444 176 6.6 172.1 21.7
2002-08-21 14:34:18 51°23.225 2°49.474 174.3 6.9 170.4 20.1
2002-08-21 14:35:18 51°23.109 2°49.505 175 7.2 170.1 18.8
2002-08-21 14:36:18 51°22.989 2°49.528 180.2 7.5 179.1 17.4
2002-08-21 14:37:18 51°22.855 2°49.391 218.3 12 218.1 15.8
2002-08-21 14:38:18 51°22.674 2°49.199 212.5 13.4 210.3 15.8
2002-08-21 14:39:18 51°22.482 2°49.035 201 12.7 200.5 19.2
2002-08-21 14:40:18 51°22.264 2°49.056 160.3 13.3 156.8 22.8
2002-08-21 14:41:18 51°22.065 2°49.223 157.8 12.9 154.4 24.1
2002-08-21 14:42:18 51°21.857 2°49.371 160.2 13.6 158.7 24.2
2002-08-21 14:43:18 51°21.642 2°49.503 161 14.3 159.2 23.5
2002-08-21 14:44:18 51°21.427 2°49.629 162.7 14.4 160.7 22.8
2002-08-21 14:45:18 51°21.213 2°49.747 163.3 13.5 162 23.2
2002-08-21 14:46:18 51°20.995 2°49.859 165 14.1 162.4 24.2
2002-08-21 14:47:18 51°20.777 2°49.98 162.5 13.7 160.2 23.8
2002-08-21 14:48:18 51°20.56 2°50.102 163.8 14.4 161.1 22.4
2002-08-21 14:49:18 51°20.348 2°50.218 164 13.5 162.9 19.2
2002-08-21 14:50:18 51°20.138 2°50.33 163.7 12.9 162 16.8
2002-08-21 14:51:18 51°19.921 2°50.441 163 13.9 162.3 15
2002-08-21 14:52:18 51°19.708 2°50.548 164.2 13.4 163.1 13
2002-08-21 14:53:18 51°19.5 2°50.662 158.5 13.9 157.1 13.1
2002-08-21 14:54:18 51°19.289 2°50.803 156.8 13.7 155.9 15.2
2002-08-21 14:55:18 51°19.08 2°50.955 155.7 14.2 154.8 15.6
2002-08-21 14:56:18 51°18.87 2°51.1 156.7 13.5 155.5 15.4
2002-08-21 14:57:18 51°18.661 2°51.248 156.5 13.6 156.3 14.8
2002-08-21 14:58:18 51°18.452 2°51.39 157.7 13.1 156.8 13.9
2002-08-21 14:59:18 51°18.24 2°51.531 157.8 13.5 157.1 12.5
2002-08-21 15:00:18 51°18.032 2°51.672 157 14.4 156.8 11.3
2002-08-21 15:01:18 51°17.823 2°51.808 156.5 14.1 157.1 10.9
2002-08-21 15:02:18 51°17.618 2°51.95 157 13.6 156.9 10.8
2002-08-21 15:03:18 51°17.408 2°52.093 158.8 13.6 157.6 11.1
2002-08-21 15:04:18 51°17.197 2°52.241 153.7 13.8 153.7 10.8
2002-08-21 15:05:18 51°16.998 2°52.42 152.2 13.3 150.9 10
2002-08-21 15:06:17 51°16.782 2°52.535 167.8 14.2 166.8 10.9
2002-08-21 15:07:32 51°16.534 2°52.6 356.7 9.4 170.7 12
2002-08-21 15:08:48 51°16.401 2°52.61 13.5 5.2 186.9 12.3
2002-08-21 15:09:48 51°16.303 2°52.597 11.7 6.6 184.7 13.3
2002-08-21 15:10:48 51°16.164 2°52.593 2.3 9.6 177 13.3
2002-08-21 15:11:48 51°15.986 2°52.665 343.7 12 157.8 13.2
2002-08-21 15:12:48 51°15.799 2°52.861 325 14.1 138.7 12.4
2002-08-21 15:13:48 51°15.619 2°53.081 335.7 12.9 149.2 12
2002-08-21 15:14:48 51°15.461 2°53.195 345 9.3 159.6 11.7
2002-08-21 15:15:48 51°15.324 2°53.273 344.8 8.5 161 11.2
2002-08-21 15:16:48 51°15.189 2°53.335 347.5 8.4 162.1 10.7
2002-08-21 15:17:48 51°15.058 2°53.406 347 8.3 162.1 10.4
2002-08-21 15:18:48 51°14.94 2°53.467 345.7 6.3 162.9 10.7
2002-08-21 15:19:48 51°14.853 2°53.508 346.8 5 163.7 10.8
2002-08-21 15:20:48 51°14.784 2°53.553 330.7 4.1 151.4 10.7
2002-08-21 15:21:46 51°14.737 2°53.618 315.8 3.7 135.5 10.6
2002-08-21 15:22:47 51°14.691 2°53.693 314 4.2 133.2 10.5
2002-08-21 15:23:48 51°14.637 2°53.782 314.5 4.7 133.8 10.3
2002-08-21 15:24:48 51°14.589 2°53.918 292.2 6.4 110.2 10.8
2002-08-21 15:25:48 51°14.556 2°54.092 292.7 7.3 109.2 10.8
2002-08-21 15:26:48 51°14.523 2°54.267 291.8 6 110.1 10.6
2002-08-21 15:27:48 51°14.494 2°54.384 292.5 4.3 111.3 10.4
2002-08-21 15:28:48 51°14.472 2°54.519 285.8 6 103.2 10.3
2002-08-21 15:29:48 51°14.429 2°54.736 294.7 10.2 110.4 10.3
2002-08-21 15:30:48 51°14.365 2°54.999 297.3 10.8 112.1 9.8
2002-08-21 15:31:48 51°14.283 2°55.219 313.7 8.4 125.9 10.9
2002-08-21 15:32:48 51°14.204 2°55.352 323 6.1 134.2 11
2002-08-21 15:33:46 51°14.135 2°55.426 345 4.7 157.4 10.9
2002-08-21 15:34:48 51°14.057 2°55.476 346.2 5 159.5 11.2
2002-08-21 15:35:46 51°13.981 2°55.527 344.7 5.2 156.2 10.6
2002-08-21 15:36:47 51°13.891 2°55.591 344.2 5.8 155.7 10.5
2002-08-21 15:37:47 51°13.809 2°55.65 339 4.9 153 10.7
2002-08-21 15:38:48 51°13.753 2°55.716 327.3 3.7 140.1 10
2002-08-21 15:39:48 51°13.713 2°55.774 321.2 3 135.3 12.3
2002-08-21 15:40:48 51°13.685 2°55.839 301.5 3.1 116 10.5
2002-08-21 15:41:48 51°13.673 2°55.912 291.7 2.6 102.4 9.6
2002-08-21 15:42:46 51°13.667 2°55.948 307.8 0.5 118.2 8